sensor_id;sensor_type;location;lat;lon;timestamp;pressure;altitude;pressure_sealevel;temperature;humidity
11678;BME280;5895;41.950;24.372;2022-10-23T00:01:11;87379.84;;;11.05;51.07
11678;BME280;5895;41.950;24.372;2022-10-23T00:03:39;87381.66;;;11.05;48.95
11678;BME280;5895;41.950;24.372;2022-10-23T00:06:06;87389.66;;;11.03;49.41
11678;BME280;5895;41.950;24.372;2022-10-23T00:08:34;87394.88;;;11.03;49.01
11678;BME280;5895;41.950;24.372;2022-10-23T00:11:07;87388.16;;;10.96;51.58
11678;BME280;5895;41.950;24.372;2022-10-23T00:13:34;87389.44;;;10.86;49.13
11678;BME280;5895;41.950;24.372;2022-10-23T00:16:01;87380.69;;;10.81;49.37
11678;BME280;5895;41.950;24.372;2022-10-23T00:18:28;87383.75;;;10.78;49.61
11678;BME280;5895;41.950;24.372;2022-10-23T00:20:55;87384.56;;;10.72;49.52
11678;BME280;5895;41.950;24.372;2022-10-23T00:23:23;87378.00;;;10.69;49.76
11678;BME280;5895;41.950;24.372;2022-10-23T00:25:50;87388.00;;;10.66;49.68
11678;BME280;5895;41.950;24.372;2022-10-23T00:28:18;87375.47;;;10.63;50.08
11678;BME280;5895;41.950;24.372;2022-10-23T00:30:46;87377.28;;;10.62;49.78
11678;BME280;5895;41.950;24.372;2022-10-23T00:33:13;87364.31;;;10.62;49.70
11678;BME280;5895;41.950;24.372;2022-10-23T00:35:41;87374.47;;;10.64;49.64
11678;BME280;5895;41.950;24.372;2022-10-23T00:38:09;87378.41;;;10.66;49.61
11678;BME280;5895;41.950;24.372;2022-10-23T00:40:37;87378.22;;;10.68;49.78
11678;BME280;5895;41.950;24.372;2022-10-23T00:43:05;87372.88;;;10.63;49.57
11678;BME280;5895;41.950;24.372;2022-10-23T00:45:34;87363.69;;;10.67;49.91
11678;BME280;5895;41.950;24.372;2022-10-23T00:48:02;87371.59;;;10.72;49.08
11678;BME280;5895;41.950;24.372;2022-10-23T00:50:31;87362.81;;;10.73;50.06
11678;BME280;5895;41.950;24.372;2022-10-23T00:53:01;87372.41;;;10.72;49.33
11678;BME280;5895;41.950;24.372;2022-10-23T00:55:29;87366.41;;;10.72;49.67
11678;BME280;5895;41.950;24.372;2022-10-23T00:57:58;87362.06;;;10.66;49.30
11678;BME280;5895;41.950;24.372;2022-10-23T01:00:28;87363.94;;;10.58;49.98
11678;BME280;5895;41.950;24.372;2022-10-23T01:02:56;87370.53;;;10.54;50.34
11678;BME280;5895;41.950;24.372;2022-10-23T01:05:27;87365.41;;;10.48;51.29
11678;BME280;5895;41.950;24.372;2022-10-23T01:08:00;87368.63;;;10.43;52.18
11678;BME280;5895;41.950;24.372;2022-10-23T01:10:33;87359.72;;;10.39;52.94
11678;BME280;5895;41.950;24.372;2022-10-23T01:13:09;87370.72;;;10.35;51.91
11678;BME280;5895;41.950;24.372;2022-10-23T01:15:42;87372.75;;;10.32;51.92
11678;BME280;5895;41.950;24.372;2022-10-23T01:18:17;87366.94;;;10.30;53.39
11678;BME280;5895;41.950;24.372;2022-10-23T01:20:50;87377.94;;;10.26;51.93
11678;BME280;5895;41.950;24.372;2022-10-23T01:23:46;87366.59;;;10.20;55.63
11678;BME280;5895;41.950;24.372;2022-10-23T01:26:28;87358.03;;;10.20;54.21
11678;BME280;5895;41.950;24.372;2022-10-23T01:29:03;87366.41;;;10.22;53.02
11678;BME280;5895;41.950;24.372;2022-10-23T01:31:36;87368.03;;;10.16;50.87
11678;BME280;5895;41.950;24.372;2022-10-23T01:34:09;87361.06;;;10.17;52.72
11678;BME280;5895;41.950;24.372;2022-10-23T01:36:41;87368.81;;;10.17;50.38
11678;BME280;5895;41.950;24.372;2022-10-23T01:39:11;87369.84;;;10.16;51.09
11678;BME280;5895;41.950;24.372;2022-10-23T01:41:44;87375.59;;;10.18;52.06
11678;BME280;5895;41.950;24.372;2022-10-23T01:44:18;87363.22;;;10.20;53.24
11678;BME280;5895;41.950;24.372;2022-10-23T01:46:49;87359.03;;;10.19;50.91
11678;BME280;5895;41.950;24.372;2022-10-23T01:49:19;87370.41;;;10.18;51.60
11678;BME280;5895;41.950;24.372;2022-10-23T01:51:49;87365.22;;;10.18;51.48
11678;BME280;5895;41.950;24.372;2022-10-23T01:54:18;87364.22;;;10.19;50.80
11678;BME280;5895;41.950;24.372;2022-10-23T01:56:50;87363.81;;;10.22;51.63
11678;BME280;5895;41.950;24.372;2022-10-23T01:59:21;87350.84;;;10.22;51.70
11678;BME280;5895;41.950;24.372;2022-10-23T02:01:52;87358.03;;;10.20;52.14
11678;BME280;5895;41.950;24.372;2022-10-23T02:04:26;87359.59;;;10.21;54.04
11678;BME280;5895;41.950;24.372;2022-10-23T02:06:55;87358.03;;;10.20;51.04
11678;BME280;5895;41.950;24.372;2022-10-23T02:09:23;87359.03;;;10.19;50.83
11678;BME280;5895;41.950;24.372;2022-10-23T02:11:53;87354.84;;;10.18;52.92
11678;BME280;5895;41.950;24.372;2022-10-23T02:14:33;87360.03;;;10.18;55.27
11678;BME280;5895;41.950;24.372;2022-10-23T02:17:09;87356.88;;;10.16;54.07
11678;BME280;5895;41.950;24.372;2022-10-23T02:19:46;87358.66;;;10.15;54.14
11678;BME280;5895;41.950;24.372;2022-10-23T02:22:19;87363.03;;;10.15;51.89
11678;BME280;5895;41.950;24.372;2022-10-23T02:24:52;87363.22;;;10.20;52.44
11678;BME280;5895;41.950;24.372;2022-10-23T02:27:24;87365.63;;;10.21;52.20
11678;BME280;5895;41.950;24.372;2022-10-23T02:29:56;87361.22;;;10.22;51.47
11678;BME280;5895;41.950;24.372;2022-10-23T02:32:28;87359.22;;;10.24;50.19
11678;BME280;5895;41.950;24.372;2022-10-23T02:34:55;87365.59;;;10.28;51.11
11678;BME280;5895;41.950;24.372;2022-10-23T02:37:23;87367.16;;;10.29;50.44
11678;BME280;5895;41.950;24.372;2022-10-23T02:39:50;87379.13;;;10.30;50.86
11678;BME280;5895;41.950;24.372;2022-10-23T02:42:22;87386.75;;;10.25;53.15
11678;BME280;5895;41.950;24.372;2022-10-23T02:45:00;87389.56;;;10.23;53.39
11678;BME280;5895;41.950;24.372;2022-10-23T02:47:37;87392.16;;;10.17;53.44
11678;BME280;5895;41.950;24.372;2022-10-23T02:50:21;87384.22;;;10.12;54.06
11678;BME280;5895;41.950;24.372;2022-10-23T02:52:57;87387.88;;;9.97;53.71
11678;BME280;5895;41.950;24.372;2022-10-23T02:55:34;87392.91;;;9.92;55.04
11678;BME280;5895;41.950;24.372;2022-10-23T02:58:07;87396.94;;;9.88;53.43
11678;BME280;5895;41.950;24.372;2022-10-23T03:00:41;87398.13;;;9.86;53.39
11678;BME280;5895;41.950;24.372;2022-10-23T03:03:13;87400.13;;;9.84;53.45
11678;BME280;5895;41.950;24.372;2022-10-23T03:05:43;87408.78;;;9.71;51.06
11678;BME280;5895;41.950;24.372;2022-10-23T03:08:12;87391.09;;;9.61;52.29
11678;BME280;5895;41.950;24.372;2022-10-23T03:10:41;87393.53;;;9.49;51.79
11678;BME280;5895;41.950;24.372;2022-10-23T03:13:09;87395.16;;;9.44;51.61
11678;BME280;5895;41.950;24.372;2022-10-23T03:15:38;87408.50;;;9.41;51.85
11678;BME280;5895;41.950;24.372;2022-10-23T03:18:05;87408.28;;;9.42;52.02
11678;BME280;5895;41.950;24.372;2022-10-23T03:20:32;87398.09;;;9.47;51.32
11678;BME280;5895;41.950;24.372;2022-10-23T03:23:00;87400.25;;;9.57;50.80
11678;BME280;5895;41.950;24.372;2022-10-23T03:25:27;87411.59;;;9.63;50.98
11678;BME280;5895;41.950;24.372;2022-10-23T03:27:54;87410.94;;;9.74;50.71
11678;BME280;5895;41.950;24.372;2022-10-23T03:30:22;87407.13;;;9.83;51.03
11678;BME280;5895;41.950;24.372;2022-10-23T03:32:50;87405.84;;;9.92;51.25
11678;BME280;5895;41.950;24.372;2022-10-23T03:35:17;87405.03;;;9.98;50.77
11678;BME280;5895;41.950;24.372;2022-10-23T03:37:44;87404.84;;;10.00;50.30
11678;BME280;5895;41.950;24.372;2022-10-23T03:40:11;87413.97;;;10.02;50.71
11678;BME280;5895;41.950;24.372;2022-10-23T03:42:39;87417.97;;;10.05;50.27
11678;BME280;5895;41.950;24.372;2022-10-23T03:45:07;87426.09;;;10.08;50.06
11678;BME280;5895;41.950;24.372;2022-10-23T03:47:34;87425.53;;;10.06;50.80
11678;BME280;5895;41.950;24.372;2022-10-23T03:50:08;87431.91;;;10.11;50.79
11678;BME280;5895;41.950;24.372;2022-10-23T03:52:35;87424.69;;;10.13;50.17
11678;BME280;5895;41.950;24.372;2022-10-23T03:55:03;87426.50;;;10.12;50.13
11678;BME280;5895;41.950;24.372;2022-10-23T03:57:30;87421.09;;;10.14;50.43
11678;BME280;5895;41.950;24.372;2022-10-23T03:59:59;87427.47;;;10.18;50.80
11678;BME280;5895;41.950;24.372;2022-10-23T04:02:26;87423.44;;;10.28;49.94
11678;BME280;5895;41.950;24.372;2022-10-23T04:04:53;87422.13;;;10.44;49.40
11678;BME280;5895;41.950;24.372;2022-10-23T04:07:22;87418.41;;;10.58;49.66
11678;BME280;5895;41.950;24.372;2022-10-23T04:09:49;87417.09;;;10.74;48.68
11678;BME280;5895;41.950;24.372;2022-10-23T04:12:17;87412.16;;;10.91;48.44
11678;BME280;5895;41.950;24.372;2022-10-23T04:14:44;87408.41;;;11.05;47.96
11678;BME280;5895;41.950;24.372;2022-10-23T04:17:11;87418.69;;;11.19;47.34
11678;BME280;5895;41.950;24.372;2022-10-23T04:19:38;87419.00;;;11.29;47.33
11678;BME280;5895;41.950;24.372;2022-10-23T04:22:06;87415.69;;;11.40;47.54
11678;BME280;5895;41.950;24.372;2022-10-23T04:24:35;87421.97;;;11.51;47.12
11678;BME280;5895;41.950;24.372;2022-10-23T04:27:02;87414.09;;;11.57;47.09
11678;BME280;5895;41.950;24.372;2022-10-23T04:29:29;87410.16;;;11.66;46.52
11678;BME280;5895;41.950;24.372;2022-10-23T04:31:57;87406.69;;;11.73;46.33
11678;BME280;5895;41.950;24.372;2022-10-23T04:34:25;87417.81;;;11.80;46.72
11678;BME280;5895;41.950;24.372;2022-10-23T04:36:52;87416.38;;;11.84;46.44
11678;BME280;5895;41.950;24.372;2022-10-23T04:39:19;87403.53;;;11.89;46.32
11678;BME280;5895;41.950;24.372;2022-10-23T04:41:48;87401.66;;;11.96;45.99
11678;BME280;5895;41.950;24.372;2022-10-23T04:44:15;87412.19;;;12.01;46.01
11678;BME280;5895;41.950;24.372;2022-10-23T04:46:42;87407.09;;;12.06;45.77
11678;BME280;5895;41.950;24.372;2022-10-23T04:49:09;87412.91;;;12.08;45.54
11678;BME280;5895;41.950;24.372;2022-10-23T04:51:36;87409.97;;;12.16;45.50
11678;BME280;5895;41.950;24.372;2022-10-23T04:54:04;87421.53;;;12.21;45.57
11678;BME280;5895;41.950;24.372;2022-10-23T04:56:31;87420.28;;;12.23;45.41
11678;BME280;5895;41.950;24.372;2022-10-23T04:59:00;87417.69;;;12.23;45.71
11678;BME280;5895;41.950;24.372;2022-10-23T05:01:27;87416.88;;;12.23;45.43
11678;BME280;5895;41.950;24.372;2022-10-23T05:03:54;87429.91;;;12.23;46.40
11678;BME280;5895;41.950;24.372;2022-10-23T05:06:21;87430.91;;;12.22;45.97
11678;BME280;5895;41.950;24.372;2022-10-23T05:08:49;87426.72;;;12.21;46.61
11678;BME280;5895;41.950;24.372;2022-10-23T05:11:16;87433.97;;;12.18;45.94
11678;BME280;5895;41.950;24.372;2022-10-23T05:13:43;87427.16;;;12.17;46.13
11678;BME280;5895;41.950;24.372;2022-10-23T05:16:21;87434.41;;;12.15;48.22
11678;BME280;5895;41.950;24.372;2022-10-23T05:18:52;87433.59;;;12.15;46.58
11678;BME280;5895;41.950;24.372;2022-10-23T05:21:21;87435.97;;;12.16;46.60
11678;BME280;5895;41.950;24.372;2022-10-23T05:23:50;87428.19;;;12.16;46.65
11678;BME280;5895;41.950;24.372;2022-10-23T05:26:18;87437.13;;;12.21;46.55
11678;BME280;5895;41.950;24.372;2022-10-23T05:28:46;87435.09;;;12.23;46.43
11678;BME280;5895;41.950;24.372;2022-10-23T05:31:16;87437.28;;;12.26;46.53
11678;BME280;5895;41.950;24.372;2022-10-23T05:33:45;87444.63;;;12.29;45.91
11678;BME280;5895;41.950;24.372;2022-10-23T05:36:13;87445.22;;;12.31;45.46
11678;BME280;5895;41.950;24.372;2022-10-23T05:38:40;87449.41;;;12.32;45.90
11678;BME280;5895;41.950;24.372;2022-10-23T05:41:07;87443.41;;;12.31;45.83
11678;BME280;5895;41.950;24.372;2022-10-23T05:43:35;87449.41;;;12.32;45.86
11678;BME280;5895;41.950;24.372;2022-10-23T05:46:03;87445.00;;;12.32;46.45
11678;BME280;5895;41.950;24.372;2022-10-23T05:48:35;87455.16;;;12.34;46.78
11678;BME280;5895;41.950;24.372;2022-10-23T05:51:07;87451.56;;;12.35;46.34
11678;BME280;5895;41.950;24.372;2022-10-23T05:53:34;87462.53;;;12.37;45.25
11678;BME280;5895;41.950;24.372;2022-10-23T05:56:04;87466.16;;;12.36;46.13
11678;BME280;5895;41.950;24.372;2022-10-23T05:58:32;87460.72;;;12.37;45.97
11678;BME280;5895;41.950;24.372;2022-10-23T06:01:04;87463.56;;;12.36;46.95
11678;BME280;5895;41.950;24.372;2022-10-23T06:03:32;87467.75;;;12.37;45.82
11678;BME280;5895;41.950;24.372;2022-10-23T06:06:00;87469.34;;;12.38;46.47
11678;BME280;5895;41.950;24.372;2022-10-23T06:08:28;87470.91;;;12.39;46.13
11678;BME280;5895;41.950;24.372;2022-10-23T06:10:55;87474.09;;;12.41;46.10
11678;BME280;5895;41.950;24.372;2022-10-23T06:13:23;87469.91;;;12.40;45.38
11678;BME280;5895;41.950;24.372;2022-10-23T06:15:50;87481.22;;;12.45;46.10
11678;BME280;5895;41.950;24.372;2022-10-23T06:18:17;87477.97;;;12.50;45.55
11678;BME280;5895;41.950;24.372;2022-10-23T06:20:44;87495.09;;;12.58;45.19
11678;BME280;5895;41.950;24.372;2022-10-23T06:23:13;87483.16;;;12.68;45.46
11678;BME280;5895;41.950;24.372;2022-10-23T06:25:40;87481.56;;;12.79;44.88
11678;BME280;5895;41.950;24.372;2022-10-23T06:28:07;87477.41;;;12.90;44.86
11678;BME280;5895;41.950;24.372;2022-10-23T06:30:38;87477.66;;;13.00;45.23
11678;BME280;5895;41.950;24.372;2022-10-23T06:33:05;87475.28;;;13.10;44.29
11678;BME280;5895;41.950;24.372;2022-10-23T06:35:32;87485.38;;;13.18;44.78
11678;BME280;5895;41.950;24.372;2022-10-23T06:37:59;87488.50;;;13.27;44.02
11678;BME280;5895;41.950;24.372;2022-10-23T06:40:28;87493.94;;;13.37;44.30
11678;BME280;5895;41.950;24.372;2022-10-23T06:42:56;87497.78;;;13.46;44.54
11678;BME280;5895;41.950;24.372;2022-10-23T06:45:23;87493.03;;;13.55;43.91
11678;BME280;5895;41.950;24.372;2022-10-23T06:47:51;87502.31;;;13.63;44.36
11678;BME280;5895;41.950;24.372;2022-10-23T06:50:18;87503.81;;;13.70;43.81
11678;BME280;5895;41.950;24.372;2022-10-23T06:52:45;87508.44;;;13.80;44.03
11678;BME280;5895;41.950;24.372;2022-10-23T06:55:12;87504.72;;;13.88;43.94
11678;BME280;5895;41.950;24.372;2022-10-23T06:57:41;87498.56;;;13.94;43.95
11678;BME280;5895;41.950;24.372;2022-10-23T07:00:10;87497.41;;;14.01;43.61
11678;BME280;5895;41.950;24.372;2022-10-23T07:02:37;87496.28;;;14.09;43.45
11678;BME280;5895;41.950;24.372;2022-10-23T07:05:05;87497.50;;;14.18;43.97
11678;BME280;5895;41.950;24.372;2022-10-23T07:07:32;87505.00;;;14.26;43.39
11678;BME280;5895;41.950;24.372;2022-10-23T07:09:59;87509.84;;;14.35;44.23
11678;BME280;5895;41.950;24.372;2022-10-23T07:12:27;87511.53;;;14.41;44.08
11678;BME280;5895;41.950;24.372;2022-10-23T07:14:55;87504.41;;;14.48;44.46
11678;BME280;5895;41.950;24.372;2022-10-23T07:17:23;87505.50;;;14.52;43.48
11678;BME280;5895;41.950;24.372;2022-10-23T07:19:50;87502.44;;;14.55;43.91
11678;BME280;5895;41.950;24.372;2022-10-23T07:22:17;87503.78;;;14.58;43.68
11678;BME280;5895;41.950;24.372;2022-10-23T07:24:44;87501.50;;;14.61;43.94
11678;BME280;5895;41.950;24.372;2022-10-23T07:27:12;87503.63;;;14.64;43.46
11678;BME280;5895;41.950;24.372;2022-10-23T07:29:39;87501.38;;;14.68;43.47
11678;BME280;5895;41.950;24.372;2022-10-23T07:32:08;87500.19;;;14.75;44.14
11678;BME280;5895;41.950;24.372;2022-10-23T07:34:36;87513.84;;;14.77;43.59
11678;BME280;5895;41.950;24.372;2022-10-23T07:37:03;87509.72;;;14.81;43.69
11678;BME280;5895;41.950;24.372;2022-10-23T07:39:30;87512.41;;;14.87;44.14
11678;BME280;5895;41.950;24.372;2022-10-23T07:41:58;87511.03;;;14.96;44.27
11678;BME280;5895;41.950;24.372;2022-10-23T07:44:25;87510.66;;;15.04;43.63
11678;BME280;5895;41.950;24.372;2022-10-23T07:46:52;87505.81;;;15.13;43.31
11678;BME280;5895;41.950;24.372;2022-10-23T07:49:21;87515.09;;;15.20;43.39
11678;BME280;5895;41.950;24.372;2022-10-23T07:51:48;87512.03;;;15.23;43.59
11678;BME280;5895;41.950;24.372;2022-10-23T07:54:17;87520.50;;;15.30;43.25
11678;BME280;5895;41.950;24.372;2022-10-23T07:56:44;87514.91;;;15.39;43.16
11678;BME280;5895;41.950;24.372;2022-10-23T07:59:12;87523.91;;;15.48;43.19
11678;BME280;5895;41.950;24.372;2022-10-23T08:01:39;87519.81;;;15.52;42.83
11678;BME280;5895;41.950;24.372;2022-10-23T08:04:08;87528.84;;;15.61;42.98
11678;BME280;5895;41.950;24.372;2022-10-23T08:06:37;87541.88;;;15.73;43.26
11678;BME280;5895;41.950;24.372;2022-10-23T08:09:04;87545.38;;;15.78;42.94
11678;BME280;5895;41.950;24.372;2022-10-23T08:11:31;87539.19;;;15.84;42.85
11678;BME280;5895;41.950;24.372;2022-10-23T08:14:01;87537.69;;;15.89;42.80
11678;BME280;5895;41.950;24.372;2022-10-23T08:16:29;87542.75;;;15.95;42.88
11678;BME280;5895;41.950;24.372;2022-10-23T08:18:56;87557.16;;;15.98;43.37
11678;BME280;5895;41.950;24.372;2022-10-23T08:21:25;87559.31;;;16.01;43.56
11678;BME280;5895;41.950;24.372;2022-10-23T08:23:54;87548.84;;;16.01;44.27
11678;BME280;5895;41.950;24.372;2022-10-23T08:26:22;87534.22;;;16.05;43.79
11678;BME280;5895;41.950;24.372;2022-10-23T08:28:50;87532.44;;;16.05;43.98
11678;BME280;5895;41.950;24.372;2022-10-23T08:31:19;87542.47;;;16.13;44.20
11678;BME280;5895;41.950;24.372;2022-10-23T08:33:47;87541.19;;;16.16;44.25
11678;BME280;5895;41.950;24.372;2022-10-23T08:36:16;87545.50;;;16.22;44.78
11678;BME280;5895;41.950;24.372;2022-10-23T08:38:44;87550.22;;;16.25;44.65
11678;BME280;5895;41.950;24.372;2022-10-23T08:41:24;87554.81;;;16.35;47.06
11678;BME280;5895;41.950;24.372;2022-10-23T08:43:57;87560.19;;;16.45;46.84
11678;BME280;5895;41.950;24.372;2022-10-23T08:46:30;87560.63;;;16.59;44.78
11678;BME280;5895;41.950;24.372;2022-10-23T08:49:11;87561.41;;;16.76;47.43
11678;BME280;5895;41.950;24.372;2022-10-23T08:51:46;87570.72;;;16.89;45.58
11678;BME280;5895;41.950;24.372;2022-10-23T08:54:16;87574.03;;;17.01;44.32
11678;BME280;5895;41.950;24.372;2022-10-23T08:56:49;87576.56;;;17.18;45.45
11678;BME280;5895;41.950;24.372;2022-10-23T08:59:23;87575.66;;;17.29;44.16
11678;BME280;5895;41.950;24.372;2022-10-23T09:01:57;87580.03;;;17.45;44.75
11678;BME280;5895;41.950;24.372;2022-10-23T09:04:26;87579.63;;;17.59;44.09
11678;BME280;5895;41.950;24.372;2022-10-23T09:06:58;87576.66;;;17.77;44.43
11678;BME280;5895;41.950;24.372;2022-10-23T09:09:52;87579.78;;;18.06;46.03
11678;BME280;5895;41.950;24.372;2022-10-23T09:12:26;87583.88;;;18.29;44.79
11678;BME280;5895;41.950;24.372;2022-10-23T09:15:02;87575.66;;;18.53;44.66
11678;BME280;5895;41.950;24.372;2022-10-23T09:17:32;87567.13;;;18.72;42.33
11678;BME280;5895;41.950;24.372;2022-10-23T09:20:10;87574.84;;;18.94;43.88
11678;BME280;5895;41.950;24.372;2022-10-23T09:22:39;87566.03;;;19.21;42.39
11678;BME280;5895;41.950;24.372;2022-10-23T09:25:09;87566.59;;;19.33;41.92
11678;BME280;5895;41.950;24.372;2022-10-23T09:27:40;87569.81;;;19.55;42.25
11678;BME280;5895;41.950;24.372;2022-10-23T09:30:23;87563.59;;;19.82;41.32
11678;BME280;5895;41.950;24.372;2022-10-23T09:32:50;87564.38;;;20.13;40.96
11678;BME280;5895;41.950;24.372;2022-10-23T09:35:21;87555.94;;;20.42;41.62
11678;BME280;5895;41.950;24.372;2022-10-23T09:37:49;87560.97;;;20.64;40.80
11678;BME280;5895;41.950;24.372;2022-10-23T09:40:24;87567.28;;;20.78;40.90
11678;BME280;5895;41.950;24.372;2022-10-23T09:42:57;87551.66;;;20.97;40.68
11678;BME280;5895;41.950;24.372;2022-10-23T09:45:28;87555.06;;;21.07;40.76
11678;BME280;5895;41.950;24.372;2022-10-23T09:50:32;87549.88;;;21.57;40.35
11678;BME280;5895;41.950;24.372;2022-10-23T09:53:00;87552.63;;;21.81;39.93
11678;BME280;5895;41.950;24.372;2022-10-23T09:55:27;87548.31;;;22.00;39.67
11678;BME280;5895;41.950;24.372;2022-10-23T09:57:56;87547.69;;;22.18;39.69
11678;BME280;5895;41.950;24.372;2022-10-23T10:00:25;87552.22;;;22.47;39.63
11678;BME280;5895;41.950;24.372;2022-10-23T10:02:57;87544.03;;;22.73;38.50
11678;BME280;5895;41.950;24.372;2022-10-23T10:05:27;87542.38;;;22.82;38.91
11678;BME280;5895;41.950;24.372;2022-10-23T10:07:57;87534.31;;;22.97;38.98
11678;BME280;5895;41.950;24.372;2022-10-23T10:10:34;87533.44;;;23.07;38.15
11678;BME280;5895;41.950;24.372;2022-10-23T10:13:09;87519.94;;;23.27;38.03
11678;BME280;5895;41.950;24.372;2022-10-23T10:15:46;87531.09;;;23.48;38.24
11678;BME280;5895;41.950;24.372;2022-10-23T10:18:19;87525.06;;;23.66;37.54
11678;BME280;5895;41.950;24.372;2022-10-23T10:20:58;87520.28;;;23.87;36.00
11678;BME280;5895;41.950;24.372;2022-10-23T10:23:35;87520.34;;;24.01;36.72
11678;BME280;5895;41.950;24.372;2022-10-23T10:26:13;87507.94;;;24.15;36.42
11678;BME280;5895;41.950;24.372;2022-10-23T10:28:58;87518.34;;;24.31;36.04
11678;BME280;5895;41.950;24.372;2022-10-23T10:31:37;87512.78;;;24.46;36.53
11678;BME280;5895;41.950;24.372;2022-10-23T10:34:10;87507.84;;;24.58;37.23
11678;BME280;5895;41.950;24.372;2022-10-23T10:36:48;87501.19;;;24.74;35.40
11678;BME280;5895;41.950;24.372;2022-10-23T10:39:23;87501.22;;;24.88;35.51
11678;BME280;5895;41.950;24.372;2022-10-23T10:42:04;87495.06;;;25.06;35.21
11678;BME280;5895;41.950;24.372;2022-10-23T10:44:52;87505.19;;;25.18;34.87
11678;BME280;5895;41.950;24.372;2022-10-23T10:47:28;87492.81;;;25.27;35.03
11678;BME280;5895;41.950;24.372;2022-10-23T10:50:04;87492.34;;;25.25;35.42
11678;BME280;5895;41.950;24.372;2022-10-23T10:52:42;87501.47;;;25.19;34.55
11678;BME280;5895;41.950;24.372;2022-10-23T10:55:17;87493.63;;;25.14;35.48
11678;BME280;5895;41.950;24.372;2022-10-23T10:57:48;87492.22;;;25.17;35.72
11678;BME280;5895;41.950;24.372;2022-10-23T11:00:19;87495.75;;;25.12;35.70
11678;BME280;5895;41.950;24.372;2022-10-23T11:02:48;87496.38;;;25.09;36.76
11678;BME280;5895;41.950;24.372;2022-10-23T11:05:25;87486.78;;;24.94;32.77
11678;BME280;5895;41.950;24.372;2022-10-23T11:07:59;87493.47;;;24.92;35.49
11678;BME280;5895;41.950;24.372;2022-10-23T11:10:27;87490.22;;;24.95;36.38
11678;BME280;5895;41.950;24.372;2022-10-23T11:12:55;87488.72;;;25.02;36.41
11678;BME280;5895;41.950;24.372;2022-10-23T11:15:27;87486.69;;;25.13;34.45
11678;BME280;5895;41.950;24.372;2022-10-23T11:17:59;87489.47;;;25.36;35.29
11678;BME280;5895;41.950;24.372;2022-10-23T11:20:40;87495.38;;;25.46;32.67
11678;BME280;5895;41.950;24.372;2022-10-23T11:23:35;87478.63;;;25.59;31.32
11678;BME280;5895;41.950;24.372;2022-10-23T11:26:15;87484.47;;;25.48;32.93
11678;BME280;5895;41.950;24.372;2022-10-23T11:29:02;87482.59;;;25.48;32.31
11678;BME280;5895;41.950;24.372;2022-10-23T11:31:43;87476.25;;;25.58;33.21
11678;BME280;5895;41.950;24.372;2022-10-23T11:34:33;87475.09;;;25.78;32.15
11678;BME280;5895;41.950;24.372;2022-10-23T11:37:04;87470.16;;;25.71;35.50
11678;BME280;5895;41.950;24.372;2022-10-23T11:39:35;87473.50;;;25.77;35.77
11678;BME280;5895;41.950;24.372;2022-10-23T11:42:13;87466.16;;;25.96;32.13
11678;BME280;5895;41.950;24.372;2022-10-23T11:44:43;87471.75;;;26.08;35.24
11678;BME280;5895;41.950;24.372;2022-10-23T11:47:31;87469.28;;;26.12;30.94
11678;BME280;5895;41.950;24.372;2022-10-23T11:50:16;87468.16;;;26.27;32.11
11678;BME280;5895;41.950;24.372;2022-10-23T11:52:58;87472.34;;;26.42;32.90
11678;BME280;5895;41.950;24.372;2022-10-23T11:55:27;87467.59;;;26.38;34.93
11678;BME280;5895;41.950;24.372;2022-10-23T11:58:20;87467.72;;;26.33;31.14
11678;BME280;5895;41.950;24.372;2022-10-23T12:00:58;87461.91;;;26.31;31.40
11678;BME280;5895;41.950;24.372;2022-10-23T12:03:38;87461.91;;;26.31;31.86
11678;BME280;5895;41.950;24.372;2022-10-23T12:06:14;87457.78;;;26.25;35.54
11678;BME280;5895;41.950;24.372;2022-10-23T12:08:49;87449.53;;;26.27;32.68
11678;BME280;5895;41.950;24.372;2022-10-23T12:11:39;87454.22;;;26.30;32.27
11678;BME280;5895;41.950;24.372;2022-10-23T12:14:27;87454.00;;;26.40;30.48
11678;BME280;5895;41.950;24.372;2022-10-23T12:16:55;87451.91;;;26.37;35.08
11678;BME280;5895;41.950;24.372;2022-10-23T12:19:25;87444.56;;;26.34;33.93
11678;BME280;5895;41.950;24.372;2022-10-23T12:21:54;87445.16;;;26.31;35.05
11678;BME280;5895;41.950;24.372;2022-10-23T12:27:25;87446.69;;;26.23;32.48
11678;BME280;5895;41.950;24.372;2022-10-23T12:30:11;87451.22;;;26.23;32.91
11678;BME280;5895;41.950;24.372;2022-10-23T12:32:57;87449.44;;;26.41;30.85
11678;BME280;5895;41.950;24.372;2022-10-23T12:35:44;87448.47;;;26.36;30.59
11678;BME280;5895;41.950;24.372;2022-10-23T12:38:15;87447.78;;;26.45;34.57
11678;BME280;5895;41.950;24.372;2022-10-23T12:40:44;87446.25;;;26.52;34.92
11678;BME280;5895;41.950;24.372;2022-10-23T12:43:24;87455.53;;;26.55;31.54
11678;BME280;5895;41.950;24.372;2022-10-23T12:45:53;87446.56;;;26.51;34.38
11678;BME280;5895;41.950;24.372;2022-10-23T12:48:22;87437.13;;;26.22;34.67
11678;BME280;5895;41.950;24.372;2022-10-23T12:50:52;87449.69;;;26.08;33.22
11678;BME280;5895;41.950;24.372;2022-10-23T12:53:21;87461.56;;;25.88;35.00
11678;BME280;5895;41.950;24.372;2022-10-23T12:55:53;87458.72;;;25.84;33.71
11678;BME280;5895;41.950;24.372;2022-10-23T12:58:24;87451.41;;;25.90;34.52
11678;BME280;5895;41.950;24.372;2022-10-23T13:00:53;87453.34;;;25.76;34.95
11678;BME280;5895;41.950;24.372;2022-10-23T13:03:23;87454.03;;;25.54;35.30
11678;BME280;5895;41.950;24.372;2022-10-23T13:05:53;87453.63;;;25.47;34.55
11678;BME280;5895;41.950;24.372;2022-10-23T13:08:28;87455.91;;;25.40;33.61
11678;BME280;5895;41.950;24.372;2022-10-23T13:10:58;87457.19;;;25.28;35.70
11678;BME280;5895;41.950;24.372;2022-10-23T13:13:26;87451.41;;;25.26;35.82
11678;BME280;5895;41.950;24.372;2022-10-23T13:15:53;87455.72;;;25.22;35.64
11678;BME280;5895;41.950;24.372;2022-10-23T13:18:20;87451.69;;;25.11;35.47
11678;BME280;5895;41.950;24.372;2022-10-23T13:20:57;87459.25;;;25.04;32.87
11678;BME280;5895;41.950;24.372;2022-10-23T13:23:28;87455.81;;;25.03;34.75
11678;BME280;5895;41.950;24.372;2022-10-23T13:25:59;87456.69;;;24.99;35.80